Basehor, Kansas
Current Conditions -  °F | °C
As of 2:53 PM on Wednesday 17 Dec 2014 (Local Time) from KMCI Reporting Station
Overcast Overcast  
Wind Chill: 24°   Ceiling: 9000
Heat Index: 30°   Visibility: 10mi
Dew Point: 20°   Wind: 6mph
Humidity: 66%   Direction: 50°NE
Pressure: 30.25"   Gusts: NA
Location:  39.14°N, 94.94°W
Report Text: KMCI 172053Z 05005KT 10SM OVC090 M01/M07 A3025 RMK AO2 SLP253 T10111067 58023
Loading
Personal Weather Stations






























Interactive Weather Map New forecast layout! Learn more

10-Day Weather Forecast

Advertisements
Track Severe Weather on mobile